createdAt,value
2023-03-26T00:00:26.795Z,3.50
2023-03-26T00:06:00.970Z,3.20
2023-03-26T00:11:06.569Z,4.10
2023-03-26T00:16:12.394Z,3.40
2023-03-26T00:21:17.740Z,3.40
2023-03-26T00:26:20.943Z,3.60
2023-03-26T00:31:24.259Z,2.90
2023-03-26T00:36:27.405Z,3.30
2023-03-26T00:41:31.357Z,3.00
2023-03-26T00:46:34.438Z,3.00
2023-03-26T00:51:39.471Z,3.30
2023-03-26T00:56:42.607Z,4.00
2023-03-26T01:01:45.723Z,4.20
2023-03-26T01:06:48.995Z,4.10
2023-03-26T01:11:52.344Z,4.70
2023-03-26T01:16:56.551Z,4.10
2023-03-26T01:22:00.877Z,4.00
2023-03-26T01:27:26.727Z,4.20
2023-03-26T01:32:38.400Z,4.20
2023-03-26T01:37:46.976Z,3.80
2023-03-26T01:43:12.886Z,4.10
2023-03-26T01:48:16.032Z,4.20
2023-03-26T01:53:19.133Z,4.00
2023-03-26T01:58:32.788Z,3.90
2023-03-26T02:03:45.094Z,3.60
2023-03-26T02:08:55.696Z,2.80
2023-03-26T02:13:59.314Z,3.50
2023-03-26T02:19:02.431Z,3.50
2023-03-26T02:24:05.534Z,3.80
2023-03-26T02:29:08.851Z,3.90
2023-03-26T02:34:12.276Z,4.60
2023-03-26T02:39:15.455Z,3.80
2023-03-26T02:44:18.381Z,4.10
2023-03-26T02:49:21.588Z,5.00
2023-03-26T02:54:24.496Z,4.20
2023-03-26T02:59:27.704Z,4.80
2023-03-26T03:04:30.609Z,4.90
2023-03-26T03:09:33.512Z,4.50
2023-03-26T03:14:36.724Z,4.50
2023-03-26T03:19:40.142Z,5.70
2023-03-26T03:24:43.998Z,4.00
2023-03-26T03:29:47.099Z,5.40
2023-03-26T03:34:51.784Z,5.20
2023-03-26T03:39:54.735Z,5.40
2023-03-26T03:44:57.635Z,5.80
2023-03-26T03:50:00.746Z,3.80
2023-03-26T03:55:04.390Z,5.40
2023-03-26T04:00:11.890Z,6.30
2023-03-26T04:05:14.779Z,6.20
2023-03-26T04:10:17.794Z,5.90
2023-03-26T04:15:21.330Z,6.40
2023-03-26T04:20:24.525Z,6.00
2023-03-26T04:25:30.697Z,6.10
2023-03-26T04:30:35.443Z,6.10
2023-03-26T04:35:42.127Z,3.90
2023-03-26T04:40:48.001Z,6.20
2023-03-26T04:45:52.574Z,6.00
2023-03-26T04:50:55.663Z,5.00
2023-03-26T04:56:09.527Z,4.70
2023-03-26T05:01:12.564Z,3.90
2023-03-26T05:06:17.883Z,4.80
2023-03-26T05:11:21.228Z,3.90
2023-03-26T05:16:25.064Z,5.50
2023-03-26T05:21:27.941Z,4.80
2023-03-26T05:26:30.836Z,5.20
2023-03-26T05:31:33.741Z,3.90
2023-03-26T05:36:37.098Z,5.10
2023-03-26T05:41:39.960Z,4.50
2023-03-26T05:46:42.979Z,4.70
2023-03-26T05:51:46.588Z,4.10
2023-03-26T05:56:49.512Z,4.20
2023-03-26T06:01:54.785Z,4.00
2023-03-26T06:06:58.167Z,3.70
2023-03-26T06:12:01.093Z,3.40
2023-03-26T06:17:04.501Z,3.90
2023-03-26T06:22:07.398Z,3.70
2023-03-26T06:27:10.399Z,2.80
2023-03-26T06:32:19.621Z,3.30
2023-03-26T06:37:23.272Z,3.60
2023-03-26T06:43:06.394Z,3.30
2023-03-26T06:47:49.358Z,2.50
2023-03-26T06:52:56.564Z,2.50
2023-03-26T06:57:59.569Z,2.80
2023-03-26T07:03:04.885Z,3.10
2023-03-26T07:08:07.860Z,2.70
2023-03-26T07:13:11.191Z,3.00
2023-03-26T07:18:14.055Z,2.90
2023-03-26T07:23:20.913Z,2.70
2023-03-26T07:28:27.258Z,2.70
2023-03-26T07:34:04.266Z,2.50
2023-03-26T07:39:16.154Z,2.80
2023-03-26T07:44:41.161Z,2.10
2023-03-26T07:49:44.908Z,2.20
2023-03-26T07:54:48.219Z,2.50
2023-03-26T08:00:12.364Z,2.30
2023-03-26T08:05:26.488Z,2.40
2023-03-26T08:10:58.879Z,2.40
2023-03-26T08:16:19.634Z,2.40
2023-03-26T08:21:28.784Z,2.60
2023-03-26T08:26:35.448Z,2.70
2023-03-26T08:31:41.670Z,2.30
2023-03-26T08:36:44.840Z,2.30
2023-03-26T08:42:16.105Z,2.50
2023-03-26T08:47:41.444Z,2.50
2023-03-26T08:53:09.632Z,2.40
2023-03-26T08:58:31.171Z,2.70
2023-03-26T09:03:43.147Z,2.30
2023-03-26T09:09:05.654Z,2.40
2023-03-26T09:14:14.598Z,2.50
2023-03-26T09:19:50.580Z,2.10
2023-03-26T09:25:16.732Z,2.20
2023-03-26T09:30:28.453Z,1.80
2023-03-26T09:35:54.071Z,1.30
2023-03-26T09:41:13.062Z,1.70
2023-03-26T09:46:34.823Z,1.50
2023-03-26T09:51:54.656Z,1.50
2023-03-26T09:57:25.791Z,1.50
2023-03-26T10:02:45.422Z,1.40
2023-03-26T10:08:08.343Z,1.60
2023-03-26T10:13:21.702Z,1.20
2023-03-26T10:18:43.346Z,1.30
2023-03-26T10:24:20.140Z,1.40
2023-03-26T10:29:44.749Z,1.40
2023-03-26T10:35:06.392Z,1.50
2023-03-26T10:40:44.422Z,1.70
2023-03-26T10:46:04.290Z,1.70
2023-03-26T10:51:32.007Z,1.60
2023-03-26T10:56:46.110Z,1.70
2023-03-26T11:01:57.938Z,1.30
2023-03-26T11:07:25.988Z,1.40
2023-03-26T11:13:04.890Z,1.80
2023-03-26T11:18:23.908Z,1.60
2023-03-26T11:23:41.115Z,1.20
2023-03-26T11:29:31.481Z,1.20
2023-03-26T11:35:01.500Z,1.40
2023-03-26T11:40:30.125Z,1.60
2023-03-26T11:45:39.480Z,1.30
2023-03-26T11:50:47.300Z,1.50
2023-03-26T11:56:04.339Z,2.00
2023-03-26T12:01:16.991Z,1.30
2023-03-26T12:06:27.329Z,1.00
2023-03-26T12:11:35.528Z,1.30
2023-03-26T12:16:38.696Z,1.90
2023-03-26T12:21:52.361Z,1.20
2023-03-26T12:27:20.836Z,1.50
2023-03-26T12:32:32.545Z,1.30
2023-03-26T12:37:47.430Z,1.30
2023-03-26T12:44:54.605Z,1.40
2023-03-26T12:48:26.473Z,1.90
2023-03-26T12:53:48.477Z,2.30
2023-03-26T12:59:21.996Z,1.50
2023-03-26T13:04:43.610Z,1.20
2023-03-26T13:10:35.276Z,0.70
2023-03-26T13:15:47.416Z,1.10
2023-03-26T13:21:04.764Z,1.30
2023-03-26T13:26:34.084Z,1.40
2023-03-26T13:31:51.523Z,1.10
2023-03-26T13:37:04.437Z,1.10
2023-03-26T13:42:37.983Z,1.20
2023-03-26T13:47:49.227Z,1.30
2023-03-26T13:53:15.646Z,1.30
2023-03-26T13:58:24.491Z,1.20
2023-03-26T14:08:39.819Z,1.50
2023-03-26T14:19:09.891Z,1.30
2023-03-26T14:24:50.195Z,1.40
2023-03-26T14:30:05.043Z,1.40
2023-03-26T14:35:28.769Z,1.50
2023-03-26T14:41:10.880Z,1.40
2023-03-26T14:46:19.975Z,1.20
2023-03-26T14:51:47.108Z,1.20
2023-03-26T14:57:24.090Z,1.00
2023-03-26T15:03:02.388Z,1.40
2023-03-26T15:13:50.641Z,1.60
2023-03-26T15:19:02.660Z,1.20
2023-03-26T15:24:43.145Z,1.10
2023-03-26T15:30:15.336Z,1.50
2023-03-26T15:35:18.252Z,1.40
2023-03-26T15:40:47.866Z,1.40
2023-03-26T15:46:22.155Z,1.50
2023-03-26T15:51:47.271Z,1.50
2023-03-26T15:57:17.315Z,1.80
2023-03-26T16:02:36.626Z,1.80
2023-03-26T16:07:48.016Z,1.80
2023-03-26T16:13:22.843Z,2.00
2023-03-26T16:18:39.181Z,1.80
2023-03-26T16:23:47.940Z,1.60
2023-03-26T16:28:53.036Z,1.70
2023-03-26T16:34:04.963Z,2.10
2023-03-26T16:39:08.674Z,2.20
2023-03-26T16:44:26.530Z,2.80
2023-03-26T16:49:47.248Z,2.50
2023-03-26T16:55:20.166Z,3.30
2023-03-26T17:00:31.494Z,4.50
2023-03-26T17:05:59.454Z,5.80
2023-03-26T17:11:24.371Z,6.90
2023-03-26T17:17:01.165Z,5.40
2023-03-26T17:22:28.857Z,6.10
2023-03-26T17:27:44.164Z,4.80
2023-03-26T17:32:56.110Z,2.70
2023-03-26T17:38:00.492Z,3.10
2023-03-26T17:43:09.557Z,3.00
2023-03-26T17:48:21.884Z,2.70
2023-03-26T17:53:31.607Z,2.40
2023-03-26T18:03:50.362Z,2.70
2023-03-26T18:09:12.279Z,3.50
2023-03-26T18:14:47.579Z,4.50
2023-03-26T18:19:53.652Z,4.90
2023-03-26T18:25:01.710Z,4.80
2023-03-26T18:30:20.673Z,4.60
2023-03-26T18:35:24.850Z,5.00
2023-03-26T18:40:34.247Z,4.80
2023-03-26T18:45:39.752Z,5.30
2023-03-26T18:50:43.035Z,4.90
2023-03-26T18:55:46.541Z,4.60
2023-03-26T19:00:53.141Z,3.70
2023-03-26T19:05:58.241Z,3.70
2023-03-26T19:11:04.693Z,3.60
2023-03-26T19:16:17.544Z,2.50
2023-03-26T19:21:23.520Z,2.90
2023-03-26T19:26:26.904Z,2.40
2023-03-26T19:31:34.620Z,2.50
2023-03-26T19:37:01.200Z,2.60
2023-03-26T19:42:06.622Z,2.60
2023-03-26T19:47:26.803Z,2.50
2023-03-26T19:52:38.566Z,3.30
2023-03-26T19:57:41.474Z,3.60
2023-03-26T20:02:46.504Z,3.30
2023-03-26T20:07:50.774Z,3.20
2023-03-26T20:12:53.673Z,2.60
2023-03-26T20:17:56.602Z,3.00
2023-03-26T20:22:59.581Z,3.10
2023-03-26T20:28:03.102Z,4.20
2023-03-26T20:33:12.128Z,3.50
2023-03-26T20:38:18.214Z,3.30
2023-03-26T20:43:25.204Z,2.30
2023-03-26T20:48:28.020Z,3.00
2023-03-26T20:53:30.921Z,2.60
2023-03-26T20:58:33.754Z,2.20
2023-03-26T21:03:37.652Z,2.30
2023-03-26T21:08:44.726Z,2.90
2023-03-26T21:13:58.558Z,2.50
2023-03-26T21:19:03.154Z,2.20
2023-03-26T21:24:33.252Z,2.10
2023-03-26T21:29:37.433Z,2.90
2023-03-26T21:34:47.862Z,3.30
2023-03-26T21:40:00.002Z,3.20
2023-03-26T21:45:03.918Z,4.40
2023-03-26T21:50:08.536Z,3.70
2023-03-26T21:55:13.299Z,3.50
2023-03-26T22:00:18.830Z,2.60
2023-03-26T22:05:47.713Z,2.50
2023-03-26T22:10:50.543Z,2.40
2023-03-26T22:15:53.821Z,2.50
2023-03-26T22:20:59.250Z,2.70
2023-03-26T22:26:03.308Z,4.10
2023-03-26T22:31:08.998Z,7.00
2023-03-26T22:36:22.561Z,4.60
2023-03-26T22:41:26.711Z,3.70
2023-03-26T22:46:31.183Z,3.20
2023-03-26T22:51:34.252Z,3.30
2023-03-26T22:56:37.394Z,3.50
2023-03-26T23:01:40.378Z,3.60
2023-03-26T23:06:43.271Z,4.60
2023-03-26T23:11:46.301Z,3.60
2023-03-26T23:16:50.718Z,3.50
2023-03-26T23:21:53.624Z,3.10
2023-03-26T23:26:56.426Z,3.20
2023-03-26T23:32:00.445Z,3.00
2023-03-26T23:37:03.366Z,3.00
2023-03-26T23:42:06.281Z,3.60
2023-03-26T23:47:10.605Z,3.60
2023-03-26T23:52:13.923Z,2.80
2023-03-26T23:57:18.599Z,3.30
